createdAt,value
2023-02-26T00:04:43.018Z,18.50
2023-02-26T00:07:44.841Z,13.00
2023-02-26T00:13:49.180Z,9.80
2023-02-26T00:17:17.956Z,8.60
2023-02-26T00:20:19.898Z,9.30
2023-02-26T00:23:22.173Z,9.20
2023-02-26T00:26:26.419Z,9.00
2023-02-26T00:29:28.628Z,9.20
2023-02-26T00:32:32.182Z,8.90
2023-02-26T00:35:34.358Z,8.60
2023-02-26T00:38:36.583Z,8.80
2023-02-26T00:41:38.496Z,9.20
2023-02-26T00:44:41.140Z,8.60
2023-02-26T00:48:20.825Z,8.80
2023-02-26T00:51:32.106Z,8.10
2023-02-26T00:54:33.767Z,8.40
2023-02-26T00:57:35.510Z,8.50
2023-02-26T01:03:39.096Z,8.70
2023-02-26T01:06:45.078Z,8.40
2023-02-26T01:09:47.106Z,7.20
2023-02-26T01:12:49.454Z,8.40
2023-02-26T01:15:57.151Z,8.10
2023-02-26T01:19:18.593Z,8.40
2023-02-26T01:22:24.512Z,9.50
2023-02-26T01:25:51.986Z,9.00
2023-02-26T01:28:58.737Z,9.40
2023-02-26T01:32:08.200Z,9.60
2023-02-26T01:35:23.899Z,9.50
2023-02-26T01:39:00.058Z,10.70
2023-02-26T01:42:23.832Z,10.50
2023-02-26T01:45:37.103Z,9.80
2023-02-26T01:48:48.289Z,9.90
2023-02-26T01:52:01.526Z,8.70
2023-02-26T01:55:05.541Z,8.30
2023-02-26T01:58:07.105Z,7.80
2023-02-26T02:01:08.834Z,7.60
2023-02-26T02:07:14.127Z,8.10
2023-02-26T02:10:16.335Z,8.70
2023-02-26T02:13:36.581Z,7.90
2023-02-26T02:16:53.636Z,7.80
2023-02-26T02:20:10.713Z,8.50
2023-02-26T02:23:15.684Z,7.60
2023-02-26T02:26:39.359Z,7.60
2023-02-26T02:30:03.534Z,7.20
2023-02-26T02:33:18.305Z,7.90
2023-02-26T02:36:39.024Z,7.90
2023-02-26T02:39:45.069Z,8.10
2023-02-26T02:43:02.556Z,7.70
2023-02-26T02:46:07.980Z,8.10
2023-02-26T02:50:05.228Z,7.80
2023-02-26T02:53:21.432Z,7.60
2023-02-26T02:56:30.433Z,8.40
2023-02-26T02:59:42.779Z,7.30
2023-02-26T03:03:01.306Z,6.70
2023-02-26T03:06:03.720Z,7.10
2023-02-26T03:12:08.087Z,6.80
2023-02-26T03:15:10.255Z,7.70
2023-02-26T03:18:35.071Z,6.40
2023-02-26T03:21:49.663Z,6.00
2023-02-26T03:24:52.158Z,6.30
2023-02-26T03:28:23.779Z,6.20
2023-02-26T03:31:32.233Z,6.20
2023-02-26T03:34:57.741Z,6.40
2023-02-26T03:38:03.358Z,7.10
2023-02-26T03:41:13.192Z,7.40
2023-02-26T03:44:34.740Z,6.60
2023-02-26T03:47:36.733Z,7.30
2023-02-26T03:50:44.664Z,6.60
2023-02-26T03:53:54.327Z,6.50
2023-02-26T03:56:56.115Z,7.40
2023-02-26T03:59:58.178Z,6.80
2023-02-26T04:03:08.870Z,7.40
2023-02-26T04:06:11.981Z,7.30
2023-02-26T04:09:16.084Z,7.20
2023-02-26T04:12:22.717Z,8.20
2023-02-26T04:15:24.374Z,7.60
2023-02-26T04:18:26.152Z,8.80
2023-02-26T04:21:27.952Z,7.60
2023-02-26T04:27:31.132Z,7.70
2023-02-26T04:30:32.967Z,7.00
2023-02-26T04:33:34.562Z,6.90
2023-02-26T04:36:36.140Z,6.30
2023-02-26T04:39:37.675Z,6.60
2023-02-26T04:42:39.423Z,6.40
2023-02-26T04:48:42.873Z,6.70
2023-02-26T04:51:44.539Z,6.80
2023-02-26T04:54:46.399Z,6.10
2023-02-26T05:00:51.464Z,6.40
2023-02-26T05:03:53.144Z,7.20
2023-02-26T05:06:54.741Z,6.60
2023-02-26T05:09:56.341Z,6.90
2023-02-26T05:12:58.532Z,6.50
2023-02-26T05:16:00.221Z,6.90
2023-02-26T05:19:01.871Z,6.90
2023-02-26T05:22:03.481Z,7.40
2023-02-26T05:25:06.413Z,7.50
2023-02-26T05:28:08.034Z,7.10
2023-02-26T05:31:09.798Z,7.40
2023-02-26T05:37:13.248Z,7.80
2023-02-26T05:40:14.792Z,7.20
2023-02-26T05:43:16.459Z,6.40
2023-02-26T05:46:19.129Z,7.20
2023-02-26T05:49:24.127Z,7.30
2023-02-26T05:55:31.818Z,7.40
2023-02-26T05:58:33.489Z,6.20
2023-02-26T06:01:35.915Z,8.00
2023-02-26T06:04:37.503Z,6.70
2023-02-26T06:07:39.221Z,7.60
2023-02-26T06:10:40.942Z,7.40
2023-02-26T06:16:44.409Z,7.40
2023-02-26T06:22:47.633Z,8.20
2023-02-26T06:25:51.305Z,6.90
2023-02-26T06:28:52.997Z,7.90
2023-02-26T06:34:56.267Z,7.40
2023-02-26T06:37:58.135Z,7.00
2023-02-26T06:40:59.991Z,9.40
2023-02-26T06:44:01.559Z,7.60
2023-02-26T06:47:03.218Z,7.50
2023-02-26T06:50:05.739Z,7.00
2023-02-26T06:53:07.420Z,6.90
2023-02-26T06:59:10.983Z,6.80
2023-02-26T07:02:17.711Z,7.10
2023-02-26T07:05:19.810Z,7.10
2023-02-26T07:08:21.394Z,8.90
2023-02-26T07:14:24.735Z,7.70
2023-02-26T07:17:26.522Z,6.40
2023-02-26T07:20:28.588Z,7.50
2023-02-26T07:23:30.504Z,8.90
2023-02-26T07:26:32.843Z,6.90
2023-02-26T07:29:34.469Z,7.40
2023-02-26T07:32:36.225Z,7.00
2023-02-26T07:35:38.553Z,7.30
2023-02-26T07:38:40.218Z,7.00
2023-02-26T07:41:41.962Z,8.80
2023-02-26T07:47:45.218Z,7.60
2023-02-26T07:50:47.483Z,6.90
2023-02-26T07:53:49.067Z,7.60
2023-02-26T07:56:51.473Z,7.10
2023-02-26T07:59:52.994Z,6.50
2023-02-26T08:02:54.597Z,6.20
2023-02-26T08:05:56.200Z,6.80
2023-02-26T08:08:57.790Z,6.20
2023-02-26T08:11:59.335Z,6.30
2023-02-26T08:15:00.910Z,6.10
2023-02-26T08:18:02.453Z,5.80
2023-02-26T08:21:04.470Z,8.00
2023-02-26T08:24:07.212Z,8.10
2023-02-26T08:27:08.839Z,6.50
2023-02-26T08:30:11.169Z,5.90
2023-02-26T08:33:12.743Z,7.20
2023-02-26T08:36:14.388Z,6.80
2023-02-26T08:39:16.168Z,8.30
2023-02-26T08:45:19.146Z,8.90
2023-02-26T08:48:20.989Z,8.40
2023-02-26T08:54:24.658Z,7.40
2023-02-26T08:57:26.169Z,7.50
2023-02-26T09:00:28.041Z,7.20
2023-02-26T09:03:29.774Z,7.20
2023-02-26T09:06:31.675Z,9.10
2023-02-26T09:09:33.323Z,8.20
2023-02-26T09:12:35.166Z,7.70
2023-02-26T09:18:38.270Z,6.80
2023-02-26T09:21:39.850Z,5.90
2023-02-26T09:24:41.697Z,7.60
2023-02-26T09:27:43.322Z,7.90
2023-02-26T09:30:44.897Z,7.60
2023-02-26T09:33:46.560Z,6.90
2023-02-26T09:36:48.350Z,6.30
2023-02-26T09:43:39.974Z,6.50
2023-02-26T09:46:51.884Z,6.30
2023-02-26T09:53:28.512Z,6.30
2023-02-26T09:56:34.179Z,5.70
2023-02-26T09:59:35.781Z,6.10
2023-02-26T10:02:51.628Z,5.50
2023-02-26T10:05:59.489Z,5.90
2023-02-26T10:09:20.648Z,5.90
2023-02-26T10:12:27.690Z,5.80
2023-02-26T10:15:37.564Z,6.20
2023-02-26T10:18:51.994Z,6.00
2023-02-26T10:22:24.259Z,5.40
2023-02-26T10:25:31.509Z,5.10
2023-02-26T10:29:04.944Z,4.70
2023-02-26T10:32:25.241Z,5.40
2023-02-26T10:35:28.386Z,5.10
2023-02-26T10:38:31.528Z,5.00
2023-02-26T10:41:36.758Z,4.80
2023-02-26T10:44:56.625Z,5.70
2023-02-26T10:48:10.139Z,5.50
2023-02-26T10:51:38.670Z,4.60
2023-02-26T10:55:18.969Z,4.60
2023-02-26T10:58:24.164Z,5.20
2023-02-26T11:01:27.780Z,11.90
2023-02-26T11:04:29.748Z,5.40
2023-02-26T11:07:32.489Z,4.50
2023-02-26T11:10:55.467Z,7.20
2023-02-26T11:13:57.309Z,7.10
2023-02-26T11:17:02.232Z,6.00
2023-02-26T11:20:14.439Z,5.40
2023-02-26T11:23:21.178Z,5.20
2023-02-26T11:26:27.325Z,4.20
2023-02-26T11:29:35.917Z,4.70
2023-02-26T11:32:38.189Z,4.70
2023-02-26T11:35:39.871Z,4.90
2023-02-26T11:38:45.080Z,4.50
2023-02-26T11:41:48.285Z,4.90
2023-02-26T11:44:51.237Z,4.50
2023-02-26T11:48:02.131Z,4.60
2023-02-26T11:51:05.167Z,4.70
2023-02-26T11:54:20.645Z,4.70
2023-02-26T11:57:26.991Z,4.20
2023-02-26T12:00:36.598Z,4.40
2023-02-26T12:03:41.093Z,4.60
2023-02-26T12:06:50.788Z,4.50
2023-02-26T12:09:52.686Z,4.50
2023-02-26T12:13:08.482Z,5.10
2023-02-26T12:16:27.207Z,5.00
2023-02-26T12:19:42.679Z,4.10
2023-02-26T12:22:49.112Z,4.30
2023-02-26T12:26:03.133Z,5.50
2023-02-26T12:29:18.372Z,4.80
2023-02-26T12:33:18.912Z,5.00
2023-02-26T12:36:28.255Z,5.00
2023-02-26T12:40:12.221Z,5.00
2023-02-26T12:43:35.492Z,5.70
2023-02-26T12:46:58.969Z,5.50
2023-02-26T12:50:19.664Z,5.20
2023-02-26T12:53:33.283Z,5.00
2023-02-26T12:57:06.126Z,5.50
2023-02-26T13:00:14.495Z,6.90
2023-02-26T13:03:54.019Z,9.40
2023-02-26T13:07:07.931Z,6.00
2023-02-26T13:10:19.464Z,6.90
2023-02-26T13:13:39.027Z,8.90
2023-02-26T13:17:01.519Z,6.90
2023-02-26T13:20:11.992Z,5.90
2023-02-26T13:23:17.950Z,5.80
2023-02-26T13:26:21.201Z,5.70
2023-02-26T13:29:30.541Z,5.40
2023-02-26T13:32:34.201Z,6.50
2023-02-26T13:35:40.481Z,5.70
2023-02-26T13:39:00.983Z,5.60
2023-02-26T13:42:22.439Z,6.10
2023-02-26T13:45:34.910Z,6.00
2023-02-26T13:49:14.035Z,6.20
2023-02-26T13:52:30.559Z,5.50
2023-02-26T13:55:46.906Z,4.90
2023-02-26T13:58:54.832Z,4.80
2023-02-26T14:02:02.643Z,4.80
2023-02-26T14:05:11.197Z,4.70
2023-02-26T14:08:27.376Z,5.10
2023-02-26T14:11:53.827Z,5.20
2023-02-26T14:14:58.665Z,5.00
2023-02-26T14:18:03.893Z,4.40
2023-02-26T14:21:28.027Z,5.10
2023-02-26T14:24:36.491Z,5.20
2023-02-26T14:27:41.764Z,5.10
2023-02-26T14:30:50.158Z,5.10
2023-02-26T14:34:13.682Z,4.80
2023-02-26T14:37:19.923Z,5.20
2023-02-26T14:40:22.313Z,5.10
2023-02-26T14:43:50.922Z,5.20
2023-02-26T14:46:53.410Z,5.70
2023-02-26T14:49:54.984Z,13.80
2023-02-26T14:53:21.827Z,18.40
2023-02-26T14:56:48.091Z,9.80
2023-02-26T15:00:07.892Z,9.60
2023-02-26T15:03:39.734Z,8.70
2023-02-26T15:07:00.134Z,5.80
2023-02-26T15:10:24.721Z,6.10
2023-02-26T15:13:48.347Z,5.80
2023-02-26T15:17:08.507Z,5.30
2023-02-26T15:20:21.865Z,6.50
2023-02-26T15:23:33.426Z,6.10
2023-02-26T15:26:36.349Z,6.20
2023-02-26T15:29:39.128Z,5.60
2023-02-26T15:32:41.138Z,5.70
2023-02-26T15:35:43.444Z,5.40
2023-02-26T15:38:49.756Z,4.60
2023-02-26T15:41:53.113Z,5.60
2023-02-26T15:44:57.327Z,5.50
2023-02-26T15:48:02.204Z,5.80
2023-02-26T15:51:06.410Z,5.60
2023-02-26T15:54:15.627Z,5.90
2023-02-26T15:57:18.521Z,5.60
2023-02-26T16:00:21.940Z,6.50
2023-02-26T16:03:29.047Z,5.70
2023-02-26T16:06:35.060Z,7.00
2023-02-26T16:09:40.330Z,6.00
2023-02-26T16:12:43.476Z,5.60
2023-02-26T16:15:45.167Z,5.90
2023-02-26T16:21:49.545Z,15.40
2023-02-26T16:24:55.390Z,8.80
2023-02-26T16:28:05.748Z,7.20
2023-02-26T16:31:16.233Z,7.90
2023-02-26T16:34:27.820Z,9.30
2023-02-26T16:37:29.465Z,10.20
2023-02-26T16:40:35.725Z,11.40
2023-02-26T16:43:46.636Z,11.00
2023-02-26T16:46:50.645Z,9.00
2023-02-26T16:49:52.335Z,9.70
2023-02-26T16:53:05.797Z,8.10
2023-02-26T16:56:07.726Z,7.60
2023-02-26T17:02:24.476Z,6.90
2023-02-26T17:05:30.455Z,8.80
2023-02-26T17:08:46.367Z,8.50
2023-02-26T17:11:48.453Z,7.70
2023-02-26T17:17:56.836Z,7.70
2023-02-26T17:27:04.770Z,8.60
2023-02-26T17:30:08.591Z,8.50
2023-02-26T17:33:13.494Z,10.40
2023-02-26T17:36:17.111Z,9.20
2023-02-26T17:39:19.086Z,8.40
2023-02-26T17:42:20.899Z,8.30
2023-02-26T17:45:22.475Z,8.80
2023-02-26T17:48:24.494Z,9.70
2023-02-26T17:51:30.493Z,7.80
2023-02-26T17:54:32.944Z,8.00
2023-02-26T18:00:36.143Z,6.90
2023-02-26T18:03:38.276Z,7.30
2023-02-26T18:06:39.973Z,7.20
2023-02-26T18:09:43.051Z,7.50
2023-02-26T18:12:44.774Z,7.50
2023-02-26T18:15:46.552Z,9.70
2023-02-26T18:18:49.100Z,8.30
2023-02-26T18:21:50.986Z,10.40
2023-02-26T18:27:55.873Z,8.40
2023-02-26T18:30:57.956Z,9.40
2023-02-26T18:34:00.965Z,9.80
2023-02-26T18:37:02.757Z,9.60
2023-02-26T18:43:05.926Z,7.30
2023-02-26T18:46:09.359Z,8.60
2023-02-26T18:49:18.799Z,8.90
2023-02-26T18:52:20.490Z,12.90
2023-02-26T18:58:23.851Z,12.90
2023-02-26T19:01:25.585Z,11.70
2023-02-26T19:04:27.684Z,10.70
2023-02-26T19:07:29.362Z,9.90
2023-02-26T19:10:31.024Z,8.70
2023-02-26T19:13:32.775Z,9.60
2023-02-26T19:19:36.118Z,9.50
2023-02-26T19:22:37.819Z,9.10
2023-02-26T19:25:42.405Z,8.60
2023-02-26T19:28:44.239Z,9.10
2023-02-26T19:31:46.303Z,9.60
2023-02-26T19:34:47.997Z,10.80
2023-02-26T19:37:49.604Z,9.00
2023-02-26T19:43:52.941Z,10.40
2023-02-26T19:46:55.045Z,9.80
2023-02-26T19:49:56.610Z,9.80
2023-02-26T19:52:58.168Z,10.00
2023-02-26T19:55:59.736Z,9.40
2023-02-26T19:59:01.377Z,9.50
2023-02-26T20:02:03.057Z,9.70
2023-02-26T20:05:05.130Z,9.10
2023-02-26T20:08:06.812Z,9.40
2023-02-26T20:14:10.525Z,9.90
2023-02-26T20:20:13.806Z,10.90
2023-02-26T20:26:17.191Z,11.30
2023-02-26T20:29:21.683Z,12.00
2023-02-26T20:32:23.686Z,12.10
2023-02-26T20:35:25.390Z,13.80
2023-02-26T20:41:29.018Z,12.40
2023-02-26T20:47:32.390Z,12.00
2023-02-26T20:50:34.995Z,12.60
2023-02-26T20:53:36.673Z,12.70
2023-02-26T20:56:38.484Z,12.90
2023-02-26T21:02:42.750Z,12.10
2023-02-26T21:05:44.394Z,11.20
2023-02-26T21:08:46.021Z,11.00
2023-02-26T21:11:47.602Z,11.70
2023-02-26T21:14:51.617Z,11.50
2023-02-26T21:17:53.360Z,12.10
2023-02-26T21:23:57.476Z,11.50
2023-02-26T21:26:59.199Z,10.50
2023-02-26T21:30:00.874Z,10.80
2023-02-26T21:33:02.582Z,12.20
2023-02-26T21:36:04.338Z,12.20
2023-02-26T21:42:08.841Z,11.30
2023-02-26T21:45:11.031Z,10.50
2023-02-26T21:48:12.713Z,10.50
2023-02-26T21:51:14.374Z,10.00
2023-02-26T21:54:16.129Z,10.40
2023-02-26T21:57:17.861Z,11.50
2023-02-26T22:00:20.023Z,11.00
2023-02-26T22:03:21.774Z,10.60
2023-02-26T22:09:25.309Z,10.10
2023-02-26T22:12:27.053Z,10.60
2023-02-26T22:18:30.566Z,12.10
2023-02-26T22:21:32.347Z,11.60
2023-02-26T22:24:33.909Z,12.30
2023-02-26T22:27:35.953Z,13.50
2023-02-26T22:30:37.522Z,15.40
2023-02-26T22:33:39.300Z,18.30
2023-02-26T22:39:42.435Z,18.90
2023-02-26T22:42:44.378Z,17.70
2023-02-26T22:45:46.202Z,18.80
2023-02-26T22:48:47.929Z,21.50
2023-02-26T22:51:49.457Z,19.90
2023-02-26T22:54:51.043Z,20.90
2023-02-26T22:57:52.731Z,21.90
2023-02-26T23:01:02.028Z,21.00
2023-02-26T23:04:03.766Z,22.40
2023-02-26T23:10:09.636Z,20.70
2023-02-26T23:13:11.190Z,20.30
2023-02-26T23:16:12.967Z,21.60
2023-02-26T23:22:16.582Z,20.70
2023-02-26T23:25:18.389Z,20.00
2023-02-26T23:28:20.502Z,19.50
2023-02-26T23:31:22.269Z,21.00
2023-02-26T23:37:25.908Z,20.60
2023-02-26T23:40:27.665Z,23.20
2023-02-26T23:43:29.392Z,22.90
2023-02-26T23:46:31.122Z,23.10
2023-02-26T23:52:34.510Z,22.70
2023-02-26T23:55:36.135Z,23.20
2023-02-26T23:58:37.756Z,25.20
